createdAt,value
2023-03-15T00:02:06.893Z,8.27
2023-03-15T00:04:34.800Z,6.30
2023-03-15T00:07:03.306Z,3.13
2023-03-15T00:09:31.211Z,3.00
2023-03-15T00:11:59.156Z,2.67
2023-03-15T00:14:28.490Z,1.90
2023-03-15T00:16:56.395Z,1.50
2023-03-15T00:19:24.323Z,1.80
2023-03-15T00:21:52.343Z,1.50
2023-03-15T00:24:20.252Z,1.93
2023-03-15T00:26:48.196Z,1.60
2023-03-15T00:29:16.134Z,1.70
2023-03-15T00:31:45.430Z,1.57
2023-03-15T00:34:14.140Z,1.80
2023-03-15T00:36:43.760Z,1.77
2023-03-15T00:39:11.728Z,2.00
2023-03-15T00:41:39.649Z,1.90
2023-03-15T00:44:07.577Z,1.60
2023-03-15T00:46:35.493Z,1.93
2023-03-15T00:49:05.087Z,1.87
2023-03-15T00:51:33.959Z,1.80
2023-03-15T00:54:01.885Z,1.70
2023-03-15T00:56:30.880Z,1.63
2023-03-15T00:58:58.797Z,1.60
2023-03-15T01:01:27.621Z,1.30
2023-03-15T01:03:55.726Z,1.20
2023-03-15T01:06:26.010Z,1.43
2023-03-15T01:08:55.942Z,5.10
2023-03-15T01:11:25.075Z,10.03
2023-03-15T01:13:53.215Z,1.80
2023-03-15T01:16:21.472Z,1.80
2023-03-15T01:18:51.624Z,1.10
2023-03-15T01:21:20.048Z,1.27
2023-03-15T01:23:49.663Z,1.57
2023-03-15T01:26:18.267Z,1.10
2023-03-15T01:28:46.267Z,0.97
2023-03-15T01:31:18.271Z,1.57
2023-03-15T01:33:46.351Z,2.03
2023-03-15T01:36:14.350Z,1.20
2023-03-15T01:38:42.297Z,1.07
2023-03-15T01:41:12.350Z,1.67
2023-03-15T01:43:40.254Z,1.30
2023-03-15T01:46:09.332Z,1.20
2023-03-15T01:48:39.739Z,1.27
2023-03-15T01:51:10.514Z,1.17
2023-03-15T01:53:38.746Z,1.33
2023-03-15T01:56:07.522Z,1.40
2023-03-15T01:58:37.287Z,1.00
2023-03-15T02:01:05.362Z,1.13
2023-03-15T02:03:36.107Z,1.30
2023-03-15T02:06:06.146Z,1.40
2023-03-15T02:08:37.147Z,1.07
2023-03-15T02:11:05.837Z,1.23
2023-03-15T02:13:34.478Z,1.37
2023-03-15T02:16:06.990Z,1.33
2023-03-15T02:18:36.938Z,1.43
2023-03-15T02:21:09.862Z,1.47
2023-03-15T02:23:37.912Z,1.40
2023-03-15T02:26:12.909Z,1.47
2023-03-15T02:28:42.736Z,1.60
2023-03-15T02:31:11.245Z,1.30
2023-03-15T02:33:42.467Z,1.23
2023-03-15T02:36:13.209Z,1.00
2023-03-15T02:38:41.135Z,1.30
2023-03-15T02:41:09.096Z,1.13
2023-03-15T02:43:37.969Z,1.60
2023-03-15T02:46:07.794Z,0.90
2023-03-15T02:48:36.627Z,1.03
2023-03-15T02:51:04.644Z,1.30
2023-03-15T02:53:32.752Z,1.60
2023-03-15T02:56:00.728Z,1.93
2023-03-15T02:58:29.015Z,1.27
2023-03-15T03:00:56.996Z,1.83
2023-03-15T03:03:26.435Z,1.83
2023-03-15T03:05:54.325Z,1.10
2023-03-15T03:08:22.241Z,1.00
2023-03-15T03:10:50.162Z,1.30
2023-03-15T03:13:18.232Z,0.97
2023-03-15T03:15:46.149Z,1.50
2023-03-15T03:18:14.182Z,1.30
2023-03-15T03:20:46.293Z,1.37
2023-03-15T03:23:14.317Z,1.27
2023-03-15T03:25:42.624Z,1.30
2023-03-15T03:28:10.663Z,1.47
2023-03-15T03:30:40.527Z,1.90
2023-03-15T03:33:08.551Z,1.03
2023-03-15T03:35:36.479Z,1.13
2023-03-15T03:38:05.971Z,1.10
2023-03-15T03:40:33.947Z,1.23
2023-03-15T03:43:02.067Z,0.83
2023-03-15T03:45:30.524Z,0.97
2023-03-15T03:47:58.747Z,1.23
2023-03-15T03:50:28.082Z,1.70
2023-03-15T03:52:56.130Z,1.40
2023-03-15T03:55:25.615Z,1.30
2023-03-15T03:57:53.774Z,1.17
2023-03-15T04:00:21.994Z,1.70
2023-03-15T04:02:54.376Z,1.17
2023-03-15T04:05:22.535Z,1.40
2023-03-15T04:07:50.798Z,1.70
2023-03-15T04:10:18.731Z,1.00
2023-03-15T04:12:48.142Z,1.70
2023-03-15T04:15:16.209Z,1.53
2023-03-15T04:17:44.090Z,1.50
2023-03-15T04:20:13.162Z,1.23
2023-03-15T04:22:41.139Z,1.20
2023-03-15T04:25:09.456Z,0.90
2023-03-15T04:27:37.389Z,1.17
2023-03-15T04:30:07.383Z,1.17
2023-03-15T04:32:35.297Z,1.30
2023-03-15T04:35:04.549Z,1.57
2023-03-15T04:37:33.163Z,1.30
2023-03-15T04:40:01.355Z,0.97
2023-03-15T04:42:29.264Z,1.47
2023-03-15T04:44:57.170Z,1.73
2023-03-15T04:47:26.673Z,1.07
2023-03-15T04:49:54.564Z,0.80
2023-03-15T04:52:22.454Z,1.23
2023-03-15T04:54:50.329Z,1.37
2023-03-15T04:57:18.277Z,1.10
2023-03-15T04:59:46.213Z,0.93
2023-03-15T05:02:14.109Z,1.20
2023-03-15T05:04:43.508Z,1.50
2023-03-15T05:07:11.617Z,1.20
2023-03-15T05:09:40.247Z,1.10
2023-03-15T05:12:08.597Z,1.33
2023-03-15T05:14:36.506Z,1.60
2023-03-15T05:17:04.429Z,1.40
2023-03-15T05:19:34.796Z,1.00
2023-03-15T05:22:04.272Z,1.27
2023-03-15T05:24:32.213Z,1.20
2023-03-15T05:27:00.245Z,1.33
2023-03-15T05:29:28.130Z,1.40
2023-03-15T05:31:56.035Z,1.40
2023-03-15T05:34:24.433Z,1.70
2023-03-15T05:36:52.389Z,1.37
2023-03-15T05:39:23.086Z,1.20
2023-03-15T05:41:51.323Z,1.30
2023-03-15T05:44:19.260Z,1.60
2023-03-15T05:46:47.259Z,1.33
2023-03-15T05:49:15.235Z,2.03
2023-03-15T05:51:44.030Z,1.60
2023-03-15T05:54:12.028Z,1.60
2023-03-15T05:56:41.314Z,1.37
2023-03-15T05:59:09.201Z,2.47
2023-03-15T06:01:37.489Z,1.20
2023-03-15T06:04:05.582Z,1.83
2023-03-15T06:06:33.983Z,1.70
2023-03-15T06:09:02.004Z,1.60
2023-03-15T06:11:29.905Z,2.03
2023-03-15T06:14:00.484Z,2.60
2023-03-15T06:16:28.413Z,1.90
2023-03-15T06:18:56.303Z,1.87
2023-03-15T06:21:24.210Z,1.87
2023-03-15T06:23:52.122Z,1.53
2023-03-15T06:26:20.120Z,1.47
2023-03-15T06:28:48.010Z,1.57
2023-03-15T06:31:17.505Z,1.70
2023-03-15T06:33:45.434Z,1.13
2023-03-15T06:36:14.461Z,1.07
2023-03-15T06:38:42.376Z,1.40
2023-03-15T06:41:10.236Z,1.50
2023-03-15T06:43:38.147Z,1.37
2023-03-15T06:46:06.433Z,2.33
2023-03-15T06:48:35.767Z,2.63
2023-03-15T06:51:04.241Z,3.00
2023-03-15T06:53:32.171Z,3.30
2023-03-15T06:56:00.183Z,2.20
2023-03-15T06:58:28.143Z,1.80
2023-03-15T07:00:56.100Z,1.93
2023-03-15T07:03:24.065Z,1.80
2023-03-15T07:05:54.582Z,2.33
2023-03-15T07:08:22.509Z,1.80
2023-03-15T07:10:50.619Z,1.90
2023-03-15T07:13:19.380Z,1.50
2023-03-15T07:15:47.951Z,2.47
2023-03-15T07:18:16.672Z,1.60
2023-03-15T07:20:44.627Z,1.70
2023-03-15T07:23:14.053Z,1.67
2023-03-15T07:25:54.470Z,1.83
2023-03-15T07:28:23.346Z,2.77
2023-03-15T07:30:55.402Z,1.40
2023-03-15T07:33:24.285Z,1.83
2023-03-15T07:35:53.669Z,1.70
2023-03-15T07:38:23.593Z,1.93
2023-03-15T07:40:51.531Z,1.73
2023-03-15T07:43:19.489Z,2.17
2023-03-15T07:45:47.415Z,2.43
2023-03-15T07:48:15.413Z,1.53
2023-03-15T07:50:43.349Z,1.63
2023-03-15T07:53:11.208Z,1.80
2023-03-15T07:55:40.710Z,1.47
2023-03-15T07:58:08.606Z,1.60
2023-03-15T08:00:36.456Z,1.43
2023-03-15T08:03:04.572Z,1.43
2023-03-15T08:05:32.504Z,1.50
2023-03-15T08:08:00.402Z,1.77
2023-03-15T08:10:28.500Z,1.53
2023-03-15T08:12:57.869Z,1.50
2023-03-15T08:15:25.920Z,1.30
2023-03-15T08:17:53.924Z,1.20
2023-03-15T08:20:22.564Z,1.20
2023-03-15T08:22:51.621Z,1.10
2023-03-15T08:25:20.895Z,1.30
2023-03-15T08:27:49.082Z,1.23
2023-03-15T08:30:19.193Z,1.80
2023-03-15T08:32:48.106Z,1.43
2023-03-15T08:35:16.953Z,1.57
2023-03-15T08:37:47.142Z,1.30
2023-03-15T08:40:15.517Z,1.33
2023-03-15T08:42:43.418Z,1.40
2023-03-15T08:45:11.830Z,1.10
2023-03-15T08:47:41.147Z,1.40
2023-03-15T08:50:11.134Z,4.23
2023-03-15T08:52:39.161Z,2.10
2023-03-15T08:55:07.644Z,1.53
2023-03-15T08:57:35.880Z,1.73
2023-03-15T09:00:08.373Z,1.80
2023-03-15T09:02:36.428Z,1.63
2023-03-15T09:05:07.410Z,1.60
2023-03-15T09:07:35.617Z,1.40
2023-03-15T09:10:05.726Z,1.53
2023-03-15T09:12:33.750Z,1.07
2023-03-15T09:15:01.855Z,1.50
2023-03-15T09:17:29.823Z,1.20
2023-03-15T09:19:57.724Z,0.80
2023-03-15T09:22:38.541Z,1.00
2023-03-15T09:25:07.592Z,1.20
2023-03-15T09:27:35.498Z,1.47
2023-03-15T09:30:03.552Z,1.10
2023-03-15T09:32:36.380Z,0.90
2023-03-15T09:35:04.762Z,1.30
2023-03-15T09:37:35.974Z,1.20
2023-03-15T09:40:08.131Z,1.17
2023-03-15T09:42:39.544Z,0.80
2023-03-15T09:45:12.336Z,1.00
2023-03-15T09:47:44.364Z,1.00
2023-03-15T09:50:17.746Z,0.60
2023-03-15T09:52:48.488Z,1.20
2023-03-15T09:55:18.349Z,0.90
2023-03-15T09:57:48.812Z,0.93
2023-03-15T10:00:20.841Z,0.83
2023-03-15T10:02:52.598Z,1.30
2023-03-15T10:05:22.168Z,1.00
2023-03-15T10:07:52.447Z,0.77
2023-03-15T10:10:21.770Z,1.10
2023-03-15T10:12:53.358Z,1.23
2023-03-15T10:15:25.895Z,1.00
2023-03-15T10:18:00.695Z,0.90
2023-03-15T10:20:30.608Z,1.23
2023-03-15T10:23:04.679Z,1.03
2023-03-15T10:25:33.724Z,1.37
2023-03-15T10:28:03.133Z,0.90
2023-03-15T10:30:31.938Z,0.80
2023-03-15T10:33:01.571Z,0.93
2023-03-15T10:35:29.568Z,1.00
2023-03-15T10:37:57.547Z,0.90
2023-03-15T10:40:43.722Z,1.33
2023-03-15T10:43:18.163Z,1.10
2023-03-15T10:45:47.965Z,1.03
2023-03-15T10:48:15.854Z,1.43
2023-03-15T10:50:43.758Z,1.00
2023-03-15T10:53:12.589Z,0.90
2023-03-15T10:55:45.590Z,0.90
2023-03-15T10:58:16.143Z,1.13
2023-03-15T11:00:49.699Z,1.00
2023-03-15T11:03:18.534Z,1.20
2023-03-15T11:05:48.240Z,1.30
2023-03-15T11:08:17.372Z,1.50
2023-03-15T11:10:47.128Z,1.20
2023-03-15T11:13:20.620Z,1.67
2023-03-15T11:15:50.885Z,1.17
2023-03-15T11:18:20.254Z,1.10
2023-03-15T11:20:48.153Z,1.30
2023-03-15T11:23:18.413Z,1.13
2023-03-15T11:25:47.714Z,1.13
2023-03-15T11:28:19.192Z,1.20
2023-03-15T11:30:48.654Z,1.07
2023-03-15T11:33:23.848Z,1.30
2023-03-15T11:35:53.074Z,0.77
2023-03-15T11:38:25.932Z,0.77
2023-03-15T11:40:57.411Z,1.60
2023-03-15T11:43:27.105Z,0.80
2023-03-15T11:45:56.873Z,1.07
2023-03-15T11:48:27.865Z,1.07
2023-03-15T11:50:55.907Z,0.87
2023-03-15T11:53:24.198Z,0.97
2023-03-15T11:55:54.903Z,1.20
2023-03-15T11:58:33.083Z,1.03
2023-03-15T12:01:04.570Z,1.10
2023-03-15T12:03:40.562Z,1.50
2023-03-15T12:06:13.231Z,10.83
2023-03-15T12:08:50.741Z,4.93
2023-03-15T12:11:37.372Z,1.30
2023-03-15T12:14:07.487Z,1.37
2023-03-15T12:16:40.624Z,1.30
2023-03-15T12:19:12.002Z,4.80
2023-03-15T12:21:41.515Z,1.77
2023-03-15T12:24:15.865Z,1.20
2023-03-15T12:26:45.205Z,1.00
2023-03-15T12:29:22.250Z,1.10
2023-03-15T12:31:54.792Z,1.20
2023-03-15T12:34:27.444Z,0.90
2023-03-15T12:36:57.748Z,0.90
2023-03-15T12:39:38.244Z,3.47
2023-03-15T12:42:06.275Z,0.80
2023-03-15T12:44:42.661Z,0.90
2023-03-15T12:47:10.811Z,0.60
2023-03-15T12:49:40.120Z,0.73
2023-03-15T12:52:15.145Z,0.87
2023-03-15T12:54:45.088Z,1.10
2023-03-15T12:57:13.655Z,0.80
2023-03-15T12:59:46.081Z,0.70
2023-03-15T13:02:44.033Z,0.70
2023-03-15T13:05:20.811Z,0.80
2023-03-15T13:08:06.411Z,0.50
2023-03-15T13:10:49.133Z,0.70
2023-03-15T13:13:24.652Z,0.60
2023-03-15T13:15:59.688Z,0.90
2023-03-15T13:18:28.746Z,0.70
2023-03-15T13:21:02.432Z,0.67
2023-03-15T13:23:30.871Z,0.57
2023-03-15T13:26:16.290Z,0.90
2023-03-15T13:28:49.523Z,0.80
2023-03-15T13:31:22.041Z,0.60
2023-03-15T13:33:50.500Z,0.60
2023-03-15T13:36:20.315Z,0.83
2023-03-15T13:38:49.799Z,0.63
2023-03-15T13:41:18.608Z,0.83
2023-03-15T13:43:46.659Z,0.50
2023-03-15T13:46:14.859Z,0.43
2023-03-15T13:48:45.499Z,0.70
2023-03-15T13:51:18.857Z,0.63
2023-03-15T13:53:50.208Z,0.50
2023-03-15T13:56:19.379Z,0.43
2023-03-15T13:58:47.766Z,0.67
2023-03-15T14:01:16.230Z,0.80
2023-03-15T14:03:48.979Z,0.80
2023-03-15T14:06:23.228Z,0.90
2023-03-15T14:08:54.820Z,0.70
2023-03-15T14:11:35.183Z,0.60
2023-03-15T14:14:05.583Z,0.70
2023-03-15T14:16:35.195Z,0.60
2023-03-15T14:19:15.861Z,0.83
2023-03-15T14:21:44.866Z,0.83
2023-03-15T14:24:18.566Z,0.70
2023-03-15T14:26:52.235Z,0.30
2023-03-15T14:29:23.858Z,0.53
2023-03-15T14:31:52.877Z,0.50
2023-03-15T14:34:25.446Z,0.90
2023-03-15T14:36:58.284Z,0.63
2023-03-15T14:39:27.957Z,0.60
2023-03-15T14:41:56.242Z,0.67
2023-03-15T14:44:24.350Z,0.60
2023-03-15T14:46:52.566Z,1.17
2023-03-15T14:49:24.510Z,0.90
2023-03-15T14:51:55.031Z,0.90
2023-03-15T14:54:23.183Z,0.97
2023-03-15T14:56:51.324Z,0.90
2023-03-15T14:59:19.340Z,1.00
2023-03-15T15:01:49.977Z,0.60
2023-03-15T15:04:18.396Z,0.57
2023-03-15T15:06:52.446Z,0.70
2023-03-15T15:09:23.109Z,0.80
2023-03-15T15:11:51.796Z,0.70
2023-03-15T15:14:20.423Z,0.60
2023-03-15T15:16:48.704Z,0.70
2023-03-15T15:19:17.393Z,0.60
2023-03-15T15:21:45.749Z,1.13
2023-03-15T15:24:16.323Z,0.60
2023-03-15T15:26:44.705Z,0.60
2023-03-15T15:29:14.328Z,0.77
2023-03-15T15:31:42.409Z,1.00
2023-03-15T15:34:11.090Z,0.73
2023-03-15T15:36:43.282Z,0.63
2023-03-15T15:39:16.366Z,0.90
2023-03-15T15:41:45.944Z,0.80
2023-03-15T15:44:16.972Z,0.60
2023-03-15T15:46:44.927Z,1.03
2023-03-15T15:49:13.000Z,1.00
2023-03-15T15:51:42.122Z,0.77
2023-03-15T15:54:14.555Z,0.80
2023-03-15T15:56:46.690Z,0.90
2023-03-15T15:59:16.600Z,1.07
2023-03-15T16:01:58.800Z,0.80
2023-03-15T16:04:27.387Z,1.00
2023-03-15T16:06:56.393Z,0.63
2023-03-15T16:09:24.536Z,0.60
2023-03-15T16:11:52.489Z,0.80
2023-03-15T16:14:21.833Z,0.77
2023-03-15T16:16:50.234Z,0.70
2023-03-15T16:19:18.156Z,0.60
2023-03-15T16:21:52.302Z,0.60
2023-03-15T16:24:22.268Z,0.90
2023-03-15T16:26:51.127Z,4.10
2023-03-15T16:29:20.173Z,3.87
2023-03-15T16:31:50.285Z,1.70
2023-03-15T16:34:18.826Z,0.90
2023-03-15T16:36:49.366Z,0.70
2023-03-15T16:39:18.252Z,0.80
2023-03-15T16:41:46.151Z,0.90
2023-03-15T16:44:14.675Z,0.60
2023-03-15T16:46:42.649Z,0.80
2023-03-15T16:49:14.307Z,0.80
2023-03-15T16:51:45.085Z,0.83
2023-03-15T16:54:24.278Z,1.23
2023-03-15T16:57:01.450Z,1.00
2023-03-15T16:59:29.643Z,0.83
2023-03-15T17:01:57.568Z,0.80
2023-03-15T17:04:26.967Z,0.50
2023-03-15T17:06:54.973Z,0.70
2023-03-15T17:09:24.059Z,0.73
2023-03-15T17:11:53.375Z,0.90
2023-03-15T17:14:23.981Z,1.17
2023-03-15T17:16:51.956Z,1.00
2023-03-15T17:19:20.330Z,1.03
2023-03-15T17:21:49.987Z,1.27
2023-03-15T17:24:17.987Z,0.80
2023-03-15T17:26:46.368Z,1.33
2023-03-15T17:29:15.359Z,0.83
2023-03-15T17:31:44.689Z,0.80
2023-03-15T17:34:12.778Z,0.87
2023-03-15T17:36:41.136Z,1.03
2023-03-15T17:39:14.093Z,1.13
2023-03-15T17:41:44.120Z,0.80
2023-03-15T17:44:12.238Z,1.17
2023-03-15T17:46:40.201Z,1.43
2023-03-15T17:49:09.126Z,0.90
2023-03-15T17:51:37.999Z,1.27
2023-03-15T17:54:13.617Z,0.80
2023-03-15T17:56:41.600Z,0.87
2023-03-15T17:59:11.004Z,0.80
2023-03-15T18:01:39.776Z,0.90
2023-03-15T18:04:11.152Z,0.70
2023-03-15T18:06:39.145Z,0.90
2023-03-15T18:09:07.096Z,1.30
2023-03-15T18:11:37.360Z,1.03
2023-03-15T18:14:05.701Z,1.00
2023-03-15T18:16:33.735Z,0.80
2023-03-15T18:19:01.661Z,1.10
2023-03-15T18:21:29.698Z,1.27
2023-03-15T18:23:57.626Z,0.80
2023-03-15T18:26:25.609Z,1.30
2023-03-15T18:28:55.057Z,1.10
2023-03-15T18:31:23.828Z,1.37
2023-03-15T18:33:52.132Z,1.30
2023-03-15T18:36:20.528Z,1.17
2023-03-15T18:38:48.632Z,1.50
2023-03-15T18:41:20.446Z,1.23
2023-03-15T18:43:50.055Z,1.27
2023-03-15T18:46:20.412Z,1.10
2023-03-15T18:48:50.117Z,1.10
2023-03-15T18:51:18.582Z,1.30
2023-03-15T18:53:46.996Z,1.23
2023-03-15T18:56:19.448Z,1.30
2023-03-15T18:58:47.423Z,1.30
2023-03-15T19:01:15.528Z,1.30
2023-03-15T19:03:45.173Z,1.40
2023-03-15T19:06:13.917Z,1.17
2023-03-15T19:08:42.207Z,1.63
2023-03-15T19:11:10.791Z,1.37
2023-03-15T19:13:39.101Z,2.10
2023-03-15T19:16:07.217Z,1.50
2023-03-15T19:18:35.154Z,1.10
2023-03-15T19:21:04.557Z,1.33
2023-03-15T19:23:34.352Z,1.37
2023-03-15T19:26:02.277Z,1.80
2023-03-15T19:28:31.730Z,1.13
2023-03-15T19:30:59.718Z,1.23
2023-03-15T19:33:27.712Z,1.43
2023-03-15T19:35:55.988Z,1.20
2023-03-15T19:38:25.357Z,1.60
2023-03-15T19:40:55.403Z,1.00
2023-03-15T19:43:23.835Z,1.37
2023-03-15T19:45:51.962Z,1.53
2023-03-15T19:48:19.916Z,1.23
2023-03-15T19:50:48.628Z,1.90
2023-03-15T19:53:16.551Z,1.60
2023-03-15T19:55:45.897Z,1.60
2023-03-15T19:58:13.809Z,1.77
2023-03-15T20:00:41.696Z,1.87
2023-03-15T20:03:09.894Z,2.47
2023-03-15T20:05:38.559Z,2.07
2023-03-15T20:08:08.584Z,2.00
2023-03-15T20:10:36.569Z,2.03
2023-03-15T20:13:05.894Z,1.97
2023-03-15T20:15:34.044Z,2.17
2023-03-15T20:18:02.737Z,1.80
2023-03-15T20:20:30.650Z,2.47
2023-03-15T20:22:58.585Z,1.83
2023-03-15T20:25:26.669Z,2.60
2023-03-15T20:27:54.582Z,1.70
2023-03-15T20:30:24.937Z,1.80
2023-03-15T20:32:53.714Z,1.50
2023-03-15T20:35:21.824Z,2.20
2023-03-15T20:37:49.721Z,1.87
2023-03-15T20:40:17.787Z,2.40
2023-03-15T20:42:45.957Z,2.33
2023-03-15T20:45:14.271Z,2.20
2023-03-15T20:47:43.746Z,2.00
2023-03-15T20:50:13.385Z,1.57
2023-03-15T20:52:42.855Z,1.50
2023-03-15T20:55:11.608Z,1.53
2023-03-15T20:57:42.262Z,1.40
2023-03-15T21:00:12.731Z,1.60
2023-03-15T21:02:41.318Z,1.80
2023-03-15T21:05:13.146Z,1.60
2023-03-15T21:07:41.404Z,1.73
2023-03-15T21:10:09.989Z,1.93
2023-03-15T21:12:37.990Z,1.87
2023-03-15T21:15:06.359Z,2.07
2023-03-15T21:17:34.905Z,1.90
2023-03-15T21:20:02.833Z,2.10
2023-03-15T21:22:34.448Z,2.13
2023-03-15T21:25:03.008Z,1.77
2023-03-15T21:27:31.936Z,1.90
2023-03-15T21:29:59.935Z,2.10
2023-03-15T21:32:27.930Z,2.40
2023-03-15T21:34:55.859Z,2.30
2023-03-15T21:37:23.918Z,2.80
2023-03-15T21:39:54.194Z,2.50
2023-03-15T21:42:22.182Z,2.10
2023-03-15T21:44:50.152Z,1.97
2023-03-15T21:47:18.228Z,2.00
2023-03-15T21:49:46.247Z,3.00
2023-03-15T21:52:16.323Z,2.87
2023-03-15T21:54:45.096Z,2.63
2023-03-15T21:57:14.480Z,1.80
2023-03-15T21:59:42.423Z,1.90
2023-03-15T22:02:14.387Z,2.63
2023-03-15T22:04:42.988Z,2.17
2023-03-15T22:07:11.213Z,1.60
2023-03-15T22:09:39.253Z,2.20
2023-03-15T22:12:07.494Z,2.30
2023-03-15T22:14:36.939Z,2.70
2023-03-15T22:17:05.740Z,2.80
2023-03-15T22:19:33.701Z,3.00
2023-03-15T22:22:01.888Z,2.87
2023-03-15T22:24:29.812Z,2.97
2023-03-15T22:26:57.741Z,2.90
2023-03-15T22:29:25.689Z,3.33
2023-03-15T22:31:55.079Z,3.00
2023-03-15T22:34:27.705Z,2.43
2023-03-15T22:36:55.664Z,2.93
2023-03-15T22:39:23.561Z,3.20
2023-03-15T22:41:51.485Z,2.83
2023-03-15T22:44:19.465Z,3.40
2023-03-15T22:46:47.420Z,3.50
2023-03-15T22:49:17.996Z,3.30
2023-03-15T22:51:45.905Z,3.40
2023-03-15T22:54:13.834Z,3.50
2023-03-15T22:56:41.693Z,3.40
2023-03-15T22:59:09.610Z,3.20
2023-03-15T23:01:37.607Z,4.00
2023-03-15T23:04:05.584Z,3.30
2023-03-15T23:06:35.025Z,3.17
2023-03-15T23:09:05.493Z,3.47
2023-03-15T23:11:34.104Z,2.77
2023-03-15T23:14:01.987Z,3.43
2023-03-15T23:16:30.000Z,3.23
2023-03-15T23:18:57.950Z,2.90
2023-03-15T23:21:25.836Z,2.60
2023-03-15T23:23:55.174Z,2.77
2023-03-15T23:26:25.475Z,2.97
2023-03-15T23:28:53.456Z,2.90
2023-03-15T23:31:21.500Z,3.10
2023-03-15T23:33:49.490Z,2.80
2023-03-15T23:36:17.413Z,2.53
2023-03-15T23:38:45.397Z,2.63
2023-03-15T23:41:14.723Z,2.40
2023-03-15T23:43:42.712Z,2.30
2023-03-15T23:46:10.739Z,2.87
2023-03-15T23:48:38.742Z,2.60
2023-03-15T23:51:06.846Z,2.50
2023-03-15T23:53:35.011Z,2.40
2023-03-15T23:56:05.414Z,2.50
2023-03-15T23:58:34.676Z,2.70
